createdAt,value
2018-11-05T00:01:40.165Z,10.80
2018-11-05T00:04:07.476Z,10.90
2018-11-05T00:06:34.697Z,10.90
2018-11-05T00:09:01.981Z,10.90
2018-11-05T00:11:29.229Z,10.80
2018-11-05T00:13:56.456Z,10.80
2018-11-05T00:16:23.667Z,10.80
2018-11-05T00:18:50.970Z,10.80
2018-11-05T00:21:18.210Z,10.80
2018-11-05T00:23:45.477Z,10.80
2018-11-05T00:26:12.706Z,10.80
2018-11-05T00:28:39.940Z,10.80
2018-11-05T00:31:07.168Z,10.80
2018-11-05T00:33:34.460Z,10.70
2018-11-05T00:36:01.682Z,10.80
2018-11-05T00:38:28.985Z,10.80
2018-11-05T00:40:56.230Z,10.70
2018-11-05T00:43:23.461Z,10.70
2018-11-05T00:45:50.778Z,10.70
2018-11-05T00:48:17.916Z,10.70
2018-11-05T00:50:45.168Z,10.70
2018-11-05T00:53:12.390Z,10.70
2018-11-05T00:55:39.628Z,10.70
2018-11-05T00:58:06.916Z,10.70
2018-11-05T01:00:34.228Z,10.70
2018-11-05T01:03:01.510Z,10.70
2018-11-05T01:05:28.745Z,10.70
2018-11-05T01:07:55.974Z,10.80
2018-11-05T01:10:23.233Z,10.80
2018-11-05T01:12:50.565Z,10.80
2018-11-05T01:15:17.804Z,10.80
2018-11-05T01:17:45.169Z,10.80
2018-11-05T01:20:13.583Z,10.80
2018-11-05T01:22:40.864Z,10.80
2018-11-05T01:25:08.124Z,10.80
2018-11-05T01:27:35.360Z,10.70
2018-11-05T01:30:02.993Z,10.80
2018-11-05T01:32:30.237Z,10.70
2018-11-05T01:34:57.461Z,10.80
2018-11-05T01:37:24.695Z,10.70
2018-11-05T01:39:52.045Z,10.80
2018-11-05T01:42:19.327Z,10.80
2018-11-05T01:44:46.673Z,10.80
2018-11-05T01:47:13.977Z,10.80
2018-11-05T01:49:41.270Z,10.90
2018-11-05T01:52:08.903Z,10.90
2018-11-05T01:54:36.189Z,10.90
2018-11-05T01:57:03.597Z,10.90
2018-11-05T01:59:30.868Z,10.80
2018-11-05T02:01:58.185Z,10.90
2018-11-05T02:04:25.564Z,10.80
2018-11-05T02:06:52.903Z,10.80
2018-11-05T02:09:20.186Z,10.80
2018-11-05T02:11:47.476Z,10.90
2018-11-05T02:14:14.765Z,10.80
2018-11-05T02:16:42.049Z,10.80
2018-11-05T02:19:09.401Z,10.80
2018-11-05T02:21:36.724Z,10.80
2018-11-05T02:24:04.118Z,10.80
2018-11-05T02:26:31.425Z,10.80
2018-11-05T02:28:58.709Z,10.80
2018-11-05T02:31:26.009Z,10.70
2018-11-05T02:33:53.301Z,10.80
2018-11-05T02:36:20.584Z,10.80
2018-11-05T02:38:47.909Z,10.80
2018-11-05T02:41:15.221Z,10.80
2018-11-05T02:43:42.521Z,10.80
2018-11-05T02:46:09.874Z,10.70
2018-11-05T02:48:37.182Z,10.70
2018-11-05T02:51:04.600Z,10.70
2018-11-05T02:53:31.896Z,10.70
2018-11-05T02:55:59.204Z,10.70
2018-11-05T02:58:27.213Z,10.80
2018-11-05T03:00:55.529Z,10.80
2018-11-05T03:03:22.885Z,10.80
2018-11-05T03:05:50.104Z,10.80
2018-11-05T03:08:17.392Z,10.80
2018-11-05T03:10:44.673Z,10.70
2018-11-05T03:13:12.062Z,10.70
2018-11-05T03:15:39.361Z,10.80
2018-11-05T03:18:06.669Z,10.80
2018-11-05T03:20:33.946Z,10.80
2018-11-05T03:23:01.247Z,10.70
2018-11-05T03:25:28.531Z,10.70
2018-11-05T03:27:55.822Z,10.80
2018-11-05T03:30:23.145Z,10.70
2018-11-05T03:32:50.426Z,10.80
2018-11-05T03:35:17.777Z,10.80
2018-11-05T03:37:45.960Z,10.70
2018-11-05T03:40:13.533Z,10.70
2018-11-05T03:42:41.383Z,10.60
2018-11-05T03:45:10.185Z,10.60
2018-11-05T03:47:37.534Z,10.60
2018-11-05T03:50:06.967Z,10.70
2018-11-05T03:52:34.265Z,10.70
2018-11-05T03:55:01.553Z,10.60
2018-11-05T03:57:28.856Z,10.70
2018-11-05T03:59:56.181Z,10.70
2018-11-05T04:02:23.485Z,10.70
2018-11-05T04:04:50.821Z,10.70
2018-11-05T04:07:18.105Z,10.60
2018-11-05T04:09:45.435Z,10.70
2018-11-05T04:12:12.728Z,10.70
2018-11-05T04:14:40.029Z,10.60
2018-11-05T04:17:07.314Z,10.60
2018-11-05T04:19:34.608Z,10.60
2018-11-05T04:22:01.905Z,10.70
2018-11-05T04:24:29.182Z,10.70
2018-11-05T04:26:56.467Z,10.60
2018-11-05T04:29:23.767Z,10.60
2018-11-05T04:31:51.108Z,10.60
2018-11-05T04:34:18.401Z,10.60
2018-11-05T04:36:45.701Z,10.60
2018-11-05T04:39:14.538Z,10.60
2018-11-05T04:41:41.929Z,10.60
2018-11-05T04:44:09.549Z,10.70
2018-11-05T04:46:37.335Z,10.70
2018-11-05T04:49:04.620Z,10.70
2018-11-05T04:51:31.977Z,10.70
2018-11-05T04:53:59.296Z,10.60
2018-11-05T04:56:26.750Z,10.60
2018-11-05T04:58:54.025Z,10.60
2018-11-05T05:01:21.304Z,10.60
2018-11-05T05:03:48.605Z,10.60
2018-11-05T05:06:15.897Z,10.60
2018-11-05T05:08:43.181Z,10.60
2018-11-05T05:11:10.527Z,10.70
2018-11-05T05:13:37.788Z,10.70
2018-11-05T05:16:06.054Z,10.70
2018-11-05T05:18:33.268Z,10.70
2018-11-05T05:21:00.557Z,10.60
2018-11-05T05:23:27.828Z,10.60
2018-11-05T05:25:55.132Z,10.60
2018-11-05T05:28:22.409Z,10.70
2018-11-05T05:30:49.744Z,10.60
2018-11-05T05:33:17.058Z,10.50
2018-11-05T05:35:44.317Z,10.60
2018-11-05T05:38:11.592Z,10.60
2018-11-05T05:40:38.906Z,10.60
2018-11-05T05:43:06.224Z,10.60
2018-11-05T05:45:33.501Z,10.60
2018-11-05T05:48:00.772Z,10.60
2018-11-05T05:50:28.041Z,10.60
2018-11-05T05:52:55.325Z,10.70
2018-11-05T05:55:22.616Z,10.60
2018-11-05T05:57:49.884Z,10.60
2018-11-05T06:00:17.768Z,10.60
2018-11-05T06:02:45.068Z,10.60
2018-11-05T06:05:13.277Z,10.70
2018-11-05T06:07:40.947Z,10.70
2018-11-05T06:10:09.222Z,10.60
2018-11-05T06:12:36.512Z,10.70
2018-11-05T06:15:04.169Z,10.60
2018-11-05T06:17:31.457Z,10.60
2018-11-05T06:19:58.720Z,10.60
2018-11-05T06:22:26.032Z,10.60
2018-11-05T06:24:53.349Z,10.60
2018-11-05T06:27:20.621Z,10.60
2018-11-05T06:29:48.059Z,10.60
2018-11-05T06:32:15.337Z,10.60
2018-11-05T06:34:42.657Z,10.70
2018-11-05T06:37:09.917Z,10.70
2018-11-05T06:39:37.268Z,10.70
2018-11-05T06:42:04.839Z,10.70
2018-11-05T06:44:32.139Z,10.80
2018-11-05T06:46:59.421Z,10.80
2018-11-05T06:49:26.709Z,10.80
2018-11-05T06:51:54.017Z,10.90
2018-11-05T06:54:21.322Z,10.80
2018-11-05T06:56:48.580Z,10.80
2018-11-05T06:59:15.865Z,10.80
2018-11-05T07:01:43.557Z,10.80
2018-11-05T07:04:10.846Z,10.80
2018-11-05T07:06:38.117Z,10.80
2018-11-05T07:09:08.430Z,10.80
2018-11-05T07:11:35.735Z,10.70
2018-11-05T07:14:03.256Z,10.80
2018-11-05T07:16:30.527Z,10.80
2018-11-05T07:18:58.159Z,10.90
2018-11-05T07:21:25.133Z,10.80
2018-11-05T07:23:52.432Z,10.80
2018-11-05T07:26:19.705Z,10.90
2018-11-05T07:28:46.985Z,10.90
2018-11-05T07:31:14.271Z,10.90
2018-11-05T07:33:41.619Z,10.90
2018-11-05T07:36:08.905Z,10.90
2018-11-05T07:38:36.177Z,10.90
2018-11-05T07:41:03.469Z,10.90
2018-11-05T07:43:30.741Z,10.90
2018-11-05T07:45:58.042Z,11.00
2018-11-05T07:48:25.304Z,11.00
2018-11-05T07:50:52.657Z,11.10
2018-11-05T07:53:19.920Z,11.30
2018-11-05T07:55:47.188Z,11.40
2018-11-05T07:58:14.457Z,11.30
2018-11-05T08:00:47.535Z,11.20
2018-11-05T08:03:14.809Z,11.20
2018-11-05T08:05:42.098Z,11.10
2018-11-05T08:08:09.409Z,11.00
2018-11-05T08:10:36.664Z,11.10
2018-11-05T08:13:03.987Z,11.20
2018-11-05T08:15:31.271Z,11.10
2018-11-05T08:17:58.556Z,11.10
2018-11-05T08:20:25.862Z,11.10
2018-11-05T08:22:53.156Z,11.10
2018-11-05T08:25:20.453Z,11.10
2018-11-05T08:27:47.724Z,11.10
2018-11-05T08:30:19.119Z,11.10
2018-11-05T08:32:46.396Z,11.20
2018-11-05T08:35:13.993Z,11.20
2018-11-05T08:37:42.285Z,11.30
2018-11-05T08:40:11.856Z,11.30
2018-11-05T08:42:39.240Z,11.30
2018-11-05T08:45:06.789Z,11.30
2018-11-05T08:47:34.077Z,11.30
2018-11-05T08:50:01.390Z,11.40
2018-11-05T08:52:28.657Z,11.40
2018-11-05T08:54:55.929Z,11.30
2018-11-05T08:57:23.268Z,11.20
2018-11-05T08:59:50.492Z,11.20
2018-11-05T09:02:17.777Z,11.20
2018-11-05T09:04:45.132Z,11.30
2018-11-05T09:07:12.320Z,11.30
2018-11-05T09:09:39.617Z,11.30
2018-11-05T09:12:07.028Z,11.30
2018-11-05T09:14:34.265Z,11.40
2018-11-05T09:17:01.565Z,11.40
2018-11-05T09:19:28.841Z,11.40
2018-11-05T09:21:56.117Z,11.40
2018-11-05T09:24:23.413Z,11.50
2018-11-05T09:26:50.696Z,11.50
2018-11-05T09:29:17.965Z,11.60
2018-11-05T09:31:45.257Z,11.50
2018-11-05T09:34:12.533Z,11.60
2018-11-05T09:36:39.857Z,11.70
2018-11-05T09:39:07.679Z,11.60
2018-11-05T09:41:34.976Z,11.60
2018-11-05T09:44:02.278Z,11.60
2018-11-05T09:46:29.581Z,11.70
2018-11-05T09:48:56.861Z,11.80
2018-11-05T09:51:24.140Z,11.90
2018-11-05T09:53:51.418Z,11.90
2018-11-05T09:56:18.739Z,12.00
2018-11-05T09:58:46.026Z,12.00
2018-11-05T10:01:13.292Z,12.00
2018-11-05T10:03:46.560Z,12.00
2018-11-05T10:06:13.666Z,12.10
2018-11-05T10:08:40.964Z,12.20
2018-11-05T10:11:08.269Z,12.40
2018-11-05T10:13:35.557Z,12.40
2018-11-05T10:16:02.829Z,12.40
2018-11-05T10:18:30.107Z,12.20
2018-11-05T10:20:57.417Z,12.10
2018-11-05T10:23:24.706Z,12.10
2018-11-05T10:25:51.988Z,12.20
2018-11-05T10:28:19.290Z,12.20
2018-11-05T10:30:46.581Z,12.20
2018-11-05T10:33:13.876Z,12.30
2018-11-05T10:35:46.865Z,12.50
2018-11-05T10:38:14.153Z,12.40
2018-11-05T10:40:41.438Z,12.40
2018-11-05T10:43:08.712Z,12.40
2018-11-05T10:45:36.001Z,12.50
2018-11-05T10:48:03.297Z,12.40
2018-11-05T10:50:30.631Z,12.50
2018-11-05T10:52:57.877Z,12.50
2018-11-05T10:55:25.194Z,12.50
2018-11-05T10:57:52.457Z,12.50
2018-11-05T11:00:26.379Z,12.60
2018-11-05T11:02:59.324Z,12.60
2018-11-05T11:05:27.630Z,12.70
2018-11-05T11:07:55.994Z,12.60
2018-11-05T11:10:24.125Z,12.60
2018-11-05T11:12:51.400Z,12.60
2018-11-05T11:15:18.775Z,12.60
2018-11-05T11:17:45.992Z,12.70
2018-11-05T11:20:13.811Z,12.70
2018-11-05T11:22:41.077Z,12.60
2018-11-05T11:25:09.004Z,12.60
2018-11-05T11:27:36.450Z,12.60
2018-11-05T11:30:03.725Z,12.60
2018-11-05T11:32:31.044Z,12.60
2018-11-05T11:34:59.154Z,12.60
2018-11-05T11:37:26.448Z,12.60
2018-11-05T11:39:53.709Z,12.70
2018-11-05T11:42:21.067Z,12.70
2018-11-05T11:44:48.490Z,12.70
2018-11-05T11:47:15.688Z,12.80
2018-11-05T11:49:42.944Z,12.80
2018-11-05T11:52:10.209Z,12.80
2018-11-05T11:54:37.497Z,12.80
2018-11-05T11:57:05.069Z,12.80
2018-11-05T11:59:32.342Z,12.80
2018-11-05T12:02:12.320Z,12.90
2018-11-05T12:04:39.548Z,12.80
2018-11-05T12:07:07.062Z,12.80
2018-11-05T12:09:34.332Z,12.80
2018-11-05T12:12:01.969Z,12.80
2018-11-05T12:14:29.315Z,12.80
2018-11-05T12:16:56.549Z,12.90
2018-11-05T12:19:23.822Z,12.90
2018-11-05T12:21:51.217Z,12.90
2018-11-05T12:24:18.474Z,12.90
2018-11-05T12:26:45.784Z,13.10
2018-11-05T12:29:13.036Z,13.10
2018-11-05T12:31:40.309Z,13.10
2018-11-05T12:34:07.704Z,13.10
2018-11-05T12:36:35.001Z,13.20
2018-11-05T12:39:03.193Z,13.20
2018-11-05T12:41:30.504Z,13.20
2018-11-05T12:43:57.864Z,13.20
2018-11-05T12:46:25.230Z,13.30
2018-11-05T12:48:52.561Z,13.40
2018-11-05T12:51:19.834Z,13.30
2018-11-05T12:53:47.093Z,13.40
2018-11-05T12:56:14.354Z,13.40
2018-11-05T12:58:41.624Z,13.50
2018-11-05T13:01:08.893Z,13.50
2018-11-05T13:03:36.173Z,13.50
2018-11-05T13:06:03.482Z,13.50
2018-11-05T13:08:30.744Z,13.60
2018-11-05T13:10:58.013Z,13.60
2018-11-05T13:13:25.292Z,13.60
2018-11-05T13:15:52.577Z,13.70
2018-11-05T13:18:19.852Z,13.80
2018-11-05T13:20:47.117Z,13.90
2018-11-05T13:23:18.277Z,13.90
2018-11-05T13:25:45.557Z,13.90
2018-11-05T13:28:12.886Z,14.00
2018-11-05T13:30:40.104Z,14.00
2018-11-05T13:33:07.377Z,14.00
2018-11-05T13:35:34.647Z,14.00
2018-11-05T13:38:02.329Z,14.10
2018-11-05T13:40:29.214Z,14.00
2018-11-05T13:42:56.498Z,14.10
2018-11-05T13:45:23.862Z,14.10
2018-11-05T13:47:51.855Z,14.10
2018-11-05T13:50:18.712Z,14.20
2018-11-05T13:52:45.620Z,14.20
2018-11-05T13:55:14.145Z,14.20
2018-11-05T13:57:42.750Z,14.20
2018-11-05T14:00:11.925Z,14.20
2018-11-05T14:02:39.377Z,14.20
2018-11-05T14:05:07.254Z,14.20
2018-11-05T14:07:34.904Z,14.30
2018-11-05T14:10:02.254Z,14.30
2018-11-05T14:12:29.583Z,14.30
2018-11-05T14:14:56.837Z,14.20
2018-11-05T14:17:24.100Z,14.30
2018-11-05T14:19:51.379Z,14.30
2018-11-05T14:22:18.645Z,14.30
2018-11-05T14:24:45.900Z,14.30
2018-11-05T14:27:13.169Z,14.20
2018-11-05T14:29:40.931Z,14.30
2018-11-05T14:32:07.739Z,14.20
2018-11-05T14:34:35.048Z,14.20
2018-11-05T14:37:02.430Z,14.20
2018-11-05T14:39:29.716Z,14.20
2018-11-05T14:41:57.000Z,14.10
2018-11-05T14:44:24.296Z,14.10
2018-11-05T14:46:51.588Z,13.90
2018-11-05T14:49:18.877Z,13.90
2018-11-05T14:51:46.189Z,13.90
2018-11-05T14:54:13.547Z,13.90
2018-11-05T14:56:40.900Z,13.80
2018-11-05T14:59:08.191Z,13.80
2018-11-05T15:01:35.609Z,13.80
2018-11-05T15:04:02.876Z,13.70
2018-11-05T15:06:30.164Z,13.70
2018-11-05T15:08:57.438Z,13.70
2018-11-05T15:11:24.780Z,13.60
2018-11-05T15:13:52.101Z,13.50
2018-11-05T15:16:19.384Z,13.30
2018-11-05T15:18:47.034Z,13.30
2018-11-05T15:21:14.039Z,13.30
2018-11-05T15:23:41.282Z,13.20
2018-11-05T15:26:08.655Z,13.00
2018-11-05T15:28:35.845Z,13.00
2018-11-05T15:31:03.144Z,12.90
2018-11-05T15:33:30.487Z,12.90
2018-11-05T15:35:57.714Z,12.80
2018-11-05T15:38:25.018Z,12.70
2018-11-05T15:40:52.297Z,12.70
2018-11-05T15:43:19.584Z,12.60
2018-11-05T15:45:47.092Z,12.50
2018-11-05T15:48:14.398Z,12.50
2018-11-05T15:50:41.652Z,12.50
2018-11-05T15:53:09.259Z,12.40
2018-11-05T15:55:36.229Z,12.40
2018-11-05T15:58:03.510Z,12.30
2018-11-05T16:00:30.785Z,12.30
2018-11-05T16:02:59.353Z,12.20
2018-11-05T16:05:26.628Z,12.00
2018-11-05T16:07:53.924Z,11.90
2018-11-05T16:10:21.425Z,11.80
2018-11-05T16:12:48.827Z,11.80
2018-11-05T16:15:16.091Z,11.80
2018-11-05T16:17:43.413Z,11.80
2018-11-05T16:20:13.597Z,11.90
2018-11-05T16:22:40.892Z,11.90
2018-11-05T16:25:08.240Z,11.80
2018-11-05T16:27:35.507Z,11.80
2018-11-05T16:30:02.880Z,11.80
2018-11-05T16:32:30.146Z,11.80
2018-11-05T16:34:57.893Z,11.60
2018-11-05T16:37:25.256Z,11.80
2018-11-05T16:39:52.623Z,11.80
2018-11-05T16:42:19.906Z,11.60
2018-11-05T16:44:47.197Z,11.70
2018-11-05T16:47:14.478Z,11.60
2018-11-05T16:49:41.757Z,11.60
2018-11-05T16:52:09.920Z,11.50
2018-11-05T16:54:37.217Z,11.40
2018-11-05T16:57:04.794Z,11.50
2018-11-05T16:59:32.056Z,11.60
2018-11-05T17:01:59.745Z,11.60
2018-11-05T17:04:26.613Z,11.50
2018-11-05T17:06:53.885Z,11.50
2018-11-05T17:09:21.181Z,11.60
2018-11-05T17:11:48.449Z,11.60
2018-11-05T17:14:15.733Z,11.70
2018-11-05T17:16:42.986Z,11.60
2018-11-05T17:19:10.389Z,11.60
2018-11-05T17:21:37.750Z,11.50
2018-11-05T17:24:05.114Z,11.40
2018-11-05T17:26:32.432Z,11.20
2018-11-05T17:28:59.702Z,11.10
2018-11-05T17:31:26.992Z,11.30
2018-11-05T17:33:54.249Z,11.50
2018-11-05T17:36:21.523Z,11.10
2018-11-05T17:38:48.793Z,11.10
2018-11-05T17:41:16.065Z,11.00
2018-11-05T17:43:43.320Z,10.90
2018-11-05T17:46:10.609Z,11.00
2018-11-05T17:48:37.873Z,11.00
2018-11-05T17:51:12.111Z,11.10
2018-11-05T17:53:39.400Z,11.20
2018-11-05T17:56:06.696Z,11.20
2018-11-05T17:58:33.952Z,11.10
2018-11-05T18:01:01.230Z,11.10
2018-11-05T18:03:28.549Z,10.80
2018-11-05T18:05:55.830Z,10.90
2018-11-05T18:08:23.102Z,10.90
2018-11-05T18:10:50.363Z,10.90
2018-11-05T18:13:17.623Z,10.80
2018-11-05T18:15:44.932Z,10.70
2018-11-05T18:18:12.189Z,10.50
2018-11-05T18:20:39.473Z,10.40
2018-11-05T18:23:06.736Z,10.50
2018-11-05T18:25:34.025Z,10.50
2018-11-05T18:28:01.277Z,10.50
2018-11-05T18:30:28.606Z,10.30
2018-11-05T18:32:55.875Z,10.10
2018-11-05T18:35:23.154Z,10.10
2018-11-05T18:37:51.113Z,10.20
2018-11-05T18:40:18.385Z,10.20
2018-11-05T18:42:45.679Z,10.10
2018-11-05T18:45:13.164Z,10.20
2018-11-05T18:47:40.504Z,10.00
2018-11-05T18:50:09.603Z,9.70
2018-11-05T18:52:36.933Z,9.60
2018-11-05T18:55:05.878Z,9.60
2018-11-05T18:57:33.160Z,9.70
2018-11-05T19:00:00.440Z,9.50
2018-11-05T19:02:32.499Z,9.60
2018-11-05T19:04:59.739Z,9.80
2018-11-05T19:07:27.012Z,9.90
2018-11-05T19:09:54.335Z,9.70
2018-11-05T19:12:21.627Z,9.60
2018-11-05T19:14:48.913Z,9.40
2018-11-05T19:17:16.197Z,9.20
2018-11-05T19:19:43.476Z,9.30
2018-11-05T19:22:10.772Z,9.50
2018-11-05T19:24:38.093Z,9.40
2018-11-05T19:27:05.757Z,9.40
2018-11-05T19:29:33.081Z,9.40
2018-11-05T19:32:00.509Z,9.50
2018-11-05T19:34:27.841Z,9.60
2018-11-05T19:36:55.100Z,9.60
2018-11-05T19:39:22.409Z,9.50
2018-11-05T19:41:49.778Z,9.50
2018-11-05T19:44:17.103Z,9.50
2018-11-05T19:46:44.986Z,9.50
2018-11-05T19:49:12.360Z,9.40
2018-11-05T19:51:39.653Z,9.40
2018-11-05T19:54:06.966Z,9.30
2018-11-05T19:56:34.428Z,9.30
2018-11-05T19:59:01.652Z,9.30
2018-11-05T20:01:29.004Z,9.30
2018-11-05T20:03:56.353Z,9.00
2018-11-05T20:06:23.796Z,8.80
2018-11-05T20:08:51.077Z,9.00
2018-11-05T20:11:18.361Z,9.00
2018-11-05T20:13:46.828Z,9.00
2018-11-05T20:16:14.178Z,9.10
2018-11-05T20:18:41.485Z,8.90
2018-11-05T20:21:08.773Z,8.70
2018-11-05T20:23:36.058Z,8.50
2018-11-05T20:26:03.365Z,8.40
2018-11-05T20:28:30.814Z,8.40
2018-11-05T20:30:58.119Z,8.40
2018-11-05T20:33:25.522Z,8.40
2018-11-05T20:35:52.709Z,8.50
2018-11-05T20:38:19.997Z,8.60
2018-11-05T20:40:47.354Z,8.40
2018-11-05T20:43:14.632Z,8.30
2018-11-05T20:45:42.077Z,8.20
2018-11-05T20:48:09.504Z,8.20
2018-11-05T20:50:36.849Z,7.80
2018-11-05T20:53:04.221Z,7.70
2018-11-05T20:55:31.581Z,7.50
2018-11-05T20:57:59.031Z,7.40
2018-11-05T21:00:26.366Z,7.50
2018-11-05T21:02:53.892Z,7.30
2018-11-05T21:05:21.177Z,7.30
2018-11-05T21:07:48.457Z,7.10
2018-11-05T21:10:15.748Z,7.10
2018-11-05T21:12:43.652Z,7.20
2018-11-05T21:15:17.286Z,7.40
2018-11-05T21:17:45.628Z,7.60
2018-11-05T21:20:13.426Z,7.80
2018-11-05T21:22:40.869Z,8.00
2018-11-05T21:25:09.496Z,8.10
2018-11-05T21:27:36.932Z,8.00
2018-11-05T21:30:06.678Z,8.20
2018-11-05T21:32:33.973Z,8.10
2018-11-05T21:35:01.253Z,8.10
2018-11-05T21:37:28.543Z,8.10
2018-11-05T21:39:55.868Z,8.10
2018-11-05T21:42:23.156Z,8.20
2018-11-05T21:44:50.476Z,8.00
2018-11-05T21:47:17.833Z,7.90
2018-11-05T21:49:45.092Z,8.00
2018-11-05T21:52:12.373Z,8.10
2018-11-05T21:54:39.689Z,8.20
2018-11-05T21:57:06.986Z,8.20
2018-11-05T21:59:34.326Z,8.20
2018-11-05T22:02:01.608Z,8.20
2018-11-05T22:04:29.005Z,8.20
2018-11-05T22:06:56.293Z,8.10
2018-11-05T22:09:23.557Z,8.10
2018-11-05T22:11:50.832Z,8.10
2018-11-05T22:14:18.097Z,8.10
2018-11-05T22:16:45.485Z,8.10
2018-11-05T22:19:12.754Z,8.00
2018-11-05T22:21:40.106Z,7.90
2018-11-05T22:24:07.454Z,7.80
2018-11-05T22:26:34.789Z,7.80
2018-11-05T22:29:02.113Z,7.70
2018-11-05T22:31:29.377Z,7.50
2018-11-05T22:33:56.657Z,7.60
2018-11-05T22:36:23.936Z,7.60
2018-11-05T22:38:51.248Z,7.60
2018-11-05T22:41:18.562Z,7.70
2018-11-05T22:43:45.875Z,7.80
2018-11-05T22:46:13.140Z,7.80
2018-11-05T22:48:40.497Z,7.80
2018-11-05T22:51:07.784Z,7.70
2018-11-05T22:53:35.111Z,7.70
2018-11-05T22:56:02.385Z,7.60
2018-11-05T22:58:29.675Z,7.70
2018-11-05T23:01:05.903Z,7.60
2018-11-05T23:03:33.224Z,7.50
2018-11-05T23:06:00.577Z,7.60
2018-11-05T23:08:27.865Z,7.50
2018-11-05T23:10:55.220Z,7.40
2018-11-05T23:13:22.508Z,7.40
2018-11-05T23:15:49.857Z,7.40
2018-11-05T23:18:17.220Z,7.40
2018-11-05T23:20:44.481Z,7.40
2018-11-05T23:23:11.836Z,7.30
2018-11-05T23:25:39.112Z,7.30
2018-11-05T23:28:06.689Z,7.40
2018-11-05T23:30:33.969Z,7.40
2018-11-05T23:33:01.259Z,7.30
2018-11-05T23:35:28.529Z,7.30
2018-11-05T23:37:55.908Z,7.20
2018-11-05T23:40:23.185Z,7.20
2018-11-05T23:42:50.468Z,7.20
2018-11-05T23:45:17.803Z,7.20
2018-11-05T23:47:45.056Z,7.20
2018-11-05T23:50:12.503Z,7.00
2018-11-05T23:52:39.862Z,6.90
2018-11-05T23:55:07.957Z,6.90
2018-11-05T23:57:35.308Z,6.90
